sensor_id;sensor_type;location;lat;lon;timestamp;pressure;altitude;pressure_sealevel;temperature;humidity
15529;BME280;7866;52.280;9.500;2023-03-19T00:02:52;99980.34;;;10.03;89.22
15529;BME280;7866;52.280;9.500;2023-03-19T00:07:55;99969.16;;;10.00;89.49
15529;BME280;7866;52.280;9.500;2023-03-19T00:12:57;99971.38;;;9.88;89.78
15529;BME280;7866;52.280;9.500;2023-03-19T00:17:58;99977.56;;;9.88;89.59
15529;BME280;7866;52.280;9.500;2023-03-19T00:23:01;99989.13;;;9.81;89.75
15529;BME280;7866;52.280;9.500;2023-03-19T00:28:03;99980.75;;;9.84;89.93
15529;BME280;7866;52.280;9.500;2023-03-19T00:33:05;99984.16;;;9.78;89.38
15529;BME280;7866;52.280;9.500;2023-03-19T00:38:08;99986.16;;;9.76;88.79
15529;BME280;7866;52.280;9.500;2023-03-19T00:43:10;99981.16;;;9.65;89.19
15529;BME280;7866;52.280;9.500;2023-03-19T00:48:11;99974.03;;;9.49;89.41
15529;BME280;7866;52.280;9.500;2023-03-19T00:53:15;99970.84;;;9.53;89.67
15529;BME280;7866;52.280;9.500;2023-03-19T00:58:16;99966.53;;;9.44;89.03
15529;BME280;7866;52.280;9.500;2023-03-19T01:03:18;99967.88;;;9.40;89.18
15529;BME280;7866;52.280;9.500;2023-03-19T01:08:21;99976.41;;;9.35;89.36
15529;BME280;7866;52.280;9.500;2023-03-19T01:13:23;99975.91;;;9.32;88.47
15529;BME280;7866;52.280;9.500;2023-03-19T01:18:24;99970.75;;;9.30;88.63
15529;BME280;7866;52.280;9.500;2023-03-19T01:23:28;99970.25;;;9.27;88.54
15529;BME280;7866;52.280;9.500;2023-03-19T01:28:30;99969.22;;;9.28;89.02
15529;BME280;7866;52.280;9.500;2023-03-19T01:33:32;99962.56;;;9.24;88.88
15529;BME280;7866;52.280;9.500;2023-03-19T01:38:35;99960.72;;;9.24;89.57
15529;BME280;7866;52.280;9.500;2023-03-19T01:43:36;99965.22;;;9.32;89.28
15529;BME280;7866;52.280;9.500;2023-03-19T01:48:40;99959.22;;;9.30;89.30
15529;BME280;7866;52.280;9.500;2023-03-19T01:53:47;99956.19;;;9.33;89.47
15529;BME280;7866;52.280;9.500;2023-03-19T01:58:52;99965.91;;;9.34;88.97
15529;BME280;7866;52.280;9.500;2023-03-19T02:03:55;99959.69;;;9.42;89.66
15529;BME280;7866;52.280;9.500;2023-03-19T02:08:58;99963.03;;;9.35;89.77
15529;BME280;7866;52.280;9.500;2023-03-19T02:14:00;99953.19;;;9.36;89.23
15529;BME280;7866;52.280;9.500;2023-03-19T02:19:01;99948.00;;;9.43;89.26
15529;BME280;7866;52.280;9.500;2023-03-19T02:24:11;99959.19;;;9.38;88.91
15529;BME280;7866;52.280;9.500;2023-03-19T02:29:14;99960.38;;;9.35;89.21
15529;BME280;7866;52.280;9.500;2023-03-19T02:34:33;99962.22;;;9.35;88.91
15529;BME280;7866;52.280;9.500;2023-03-19T02:39:40;99960.34;;;9.44;88.96
15529;BME280;7866;52.280;9.500;2023-03-19T02:44:45;99961.47;;;9.49;88.72
15529;BME280;7866;52.280;9.500;2023-03-19T02:49:47;99953.44;;;9.57;88.53
15529;BME280;7866;52.280;9.500;2023-03-19T02:54:48;99962.41;;;9.73;89.36
15529;BME280;7866;52.280;9.500;2023-03-19T02:59:51;99966.31;;;10.01;88.54
15529;BME280;7866;52.280;9.500;2023-03-19T03:04:53;99968.09;;;10.09;87.57
15529;BME280;7866;52.280;9.500;2023-03-19T03:09:54;99954.47;;;9.96;87.28
15529;BME280;7866;52.280;9.500;2023-03-19T03:14:57;99966.59;;;10.15;86.59
15529;BME280;7866;52.280;9.500;2023-03-19T03:20:00;99960.50;;;10.21;87.60
15529;BME280;7866;52.280;9.500;2023-03-19T03:25:01;99966.81;;;9.97;86.50
15529;BME280;7866;52.280;9.500;2023-03-19T03:30:06;99972.81;;;10.07;87.17
15529;BME280;7866;52.280;9.500;2023-03-19T03:35:08;99969.78;;;10.10;85.98
15529;BME280;7866;52.280;9.500;2023-03-19T03:40:11;99968.25;;;10.16;86.40
15529;BME280;7866;52.280;9.500;2023-03-19T03:45:15;99971.84;;;10.00;85.87
15529;BME280;7866;52.280;9.500;2023-03-19T03:50:16;99972.72;;;9.92;85.73
15529;BME280;7866;52.280;9.500;2023-03-19T03:55:18;99969.00;;;9.93;86.48
15529;BME280;7866;52.280;9.500;2023-03-19T04:00:21;99965.97;;;10.04;87.02
15529;BME280;7866;52.280;9.500;2023-03-19T04:05:23;99978.19;;;9.99;86.67
15529;BME280;7866;52.280;9.500;2023-03-19T04:10:25;99982.44;;;10.16;86.73
15529;BME280;7866;52.280;9.500;2023-03-19T04:15:28;99978.59;;;10.19;86.11
15529;BME280;7866;52.280;9.500;2023-03-19T04:20:30;99970.16;;;10.38;85.97
15529;BME280;7866;52.280;9.500;2023-03-19T04:25:32;99966.47;;;10.39;85.08
15529;BME280;7866;52.280;9.500;2023-03-19T04:30:35;99973.13;;;10.43;84.42
15529;BME280;7866;52.280;9.500;2023-03-19T04:35:36;99970.47;;;10.66;83.72
15529;BME280;7866;52.280;9.500;2023-03-19T04:40:38;99971.63;;;10.41;84.22
15529;BME280;7866;52.280;9.500;2023-03-19T04:45:42;99969.75;;;10.49;83.97
15529;BME280;7866;52.280;9.500;2023-03-19T04:50:45;99971.28;;;10.44;84.65
15529;BME280;7866;52.280;9.500;2023-03-19T04:55:46;99966.09;;;10.65;85.13
15529;BME280;7866;52.280;9.500;2023-03-19T05:00:49;99977.34;;;10.60;84.30
15529;BME280;7866;52.280;9.500;2023-03-19T05:05:52;99973.81;;;10.45;84.64
15529;BME280;7866;52.280;9.500;2023-03-19T05:10:53;99975.81;;;10.43;85.67
15529;BME280;7866;52.280;9.500;2023-03-19T05:15:56;99976.50;;;10.45;86.07
15529;BME280;7866;52.280;9.500;2023-03-19T05:20:58;99973.44;;;10.48;85.41
15529;BME280;7866;52.280;9.500;2023-03-19T05:26:00;99975.13;;;10.49;85.36
15529;BME280;7866;52.280;9.500;2023-03-19T05:31:04;99968.06;;;10.48;85.31
15529;BME280;7866;52.280;9.500;2023-03-19T05:36:06;99974.16;;;10.42;84.74
15529;BME280;7866;52.280;9.500;2023-03-19T05:41:08;99979.84;;;10.39;85.94
15529;BME280;7866;52.280;9.500;2023-03-19T05:46:11;99992.28;;;10.32;85.43
15529;BME280;7866;52.280;9.500;2023-03-19T05:51:13;100000.00;;;10.27;85.94
15529;BME280;7866;52.280;9.500;2023-03-19T05:56:14;100011.22;;;10.22;85.85
15529;BME280;7866;52.280;9.500;2023-03-19T06:01:18;100009.66;;;10.36;86.77
15529;BME280;7866;52.280;9.500;2023-03-19T06:06:19;100006.13;;;10.67;85.97
15529;BME280;7866;52.280;9.500;2023-03-19T06:11:21;100001.72;;;11.34;82.31
15529;BME280;7866;52.280;9.500;2023-03-19T06:16:24;100017.34;;;11.08;82.24
15529;BME280;7866;52.280;9.500;2023-03-19T06:21:26;100019.13;;;11.16;82.45
15529;BME280;7866;52.280;9.500;2023-03-19T06:26:29;100017.28;;;11.16;82.89
15529;BME280;7866;52.280;9.500;2023-03-19T06:31:32;100016.78;;;11.35;82.75
15529;BME280;7866;52.280;9.500;2023-03-19T06:36:34;100022.00;;;11.67;81.16
15529;BME280;7866;52.280;9.500;2023-03-19T06:41:36;100031.00;;;11.89;79.43
15529;BME280;7866;52.280;9.500;2023-03-19T06:46:39;100024.78;;;11.88;78.14
15529;BME280;7866;52.280;9.500;2023-03-19T06:51:41;100022.31;;;12.01;78.17
15529;BME280;7866;52.280;9.500;2023-03-19T06:56:42;100028.09;;;12.20;77.63
15529;BME280;7866;52.280;9.500;2023-03-19T07:01:46;100032.06;;;12.39;76.71
15529;BME280;7866;52.280;9.500;2023-03-19T07:06:48;100046.22;;;12.47;75.80
15529;BME280;7866;52.280;9.500;2023-03-19T07:11:49;100053.34;;;12.40;76.66
15529;BME280;7866;52.280;9.500;2023-03-19T07:16:52;100063.63;;;12.51;75.90
15529;BME280;7866;52.280;9.500;2023-03-19T07:21:54;100065.81;;;12.63;75.62
15529;BME280;7866;52.280;9.500;2023-03-19T07:26:56;100073.31;;;12.67;75.76
15529;BME280;7866;52.280;9.500;2023-03-19T07:31:59;100071.31;;;12.76;75.81
15529;BME280;7866;52.280;9.500;2023-03-19T07:37:01;100071.78;;;12.79;76.25
15529;BME280;7866;52.280;9.500;2023-03-19T07:42:03;100070.44;;;13.12;75.50
15529;BME280;7866;52.280;9.500;2023-03-19T07:47:06;100061.25;;;13.21;74.92
15529;BME280;7866;52.280;9.500;2023-03-19T07:52:08;100072.25;;;13.04;75.65
15529;BME280;7866;52.280;9.500;2023-03-19T07:57:10;100075.00;;;13.11;75.51
15529;BME280;7866;52.280;9.500;2023-03-19T08:02:14;100081.66;;;12.94;75.96
15529;BME280;7866;52.280;9.500;2023-03-19T08:07:15;100086.84;;;12.95;76.40
15529;BME280;7866;52.280;9.500;2023-03-19T08:12:17;100075.69;;;13.20;75.75
15529;BME280;7866;52.280;9.500;2023-03-19T08:17:20;100065.56;;;13.37;75.11
15529;BME280;7866;52.280;9.500;2023-03-19T08:22:22;100072.94;;;13.56;73.79
15529;BME280;7866;52.280;9.500;2023-03-19T08:27:23;100074.84;;;13.90;73.02
15529;BME280;7866;52.280;9.500;2023-03-19T08:32:27;100073.34;;;14.16;71.54
15529;BME280;7866;52.280;9.500;2023-03-19T08:37:29;100077.59;;;14.38;71.30
15529;BME280;7866;52.280;9.500;2023-03-19T08:42:30;100071.91;;;14.54;71.05
15529;BME280;7866;52.280;9.500;2023-03-19T08:47:33;100081.09;;;14.80;70.72
15529;BME280;7866;52.280;9.500;2023-03-19T08:52:35;100086.50;;;14.87;69.38
15529;BME280;7866;52.280;9.500;2023-03-19T08:57:37;100081.81;;;15.09;69.06
15529;BME280;7866;52.280;9.500;2023-03-19T09:02:40;100086.16;;;15.10;69.05
15529;BME280;7866;52.280;9.500;2023-03-19T09:07:41;100090.50;;;15.11;69.07
15529;BME280;7866;52.280;9.500;2023-03-19T09:12:43;100080.38;;;15.33;69.57
15529;BME280;7866;52.280;9.500;2023-03-19T09:17:46;100074.56;;;15.82;67.07
15529;BME280;7866;52.280;9.500;2023-03-19T09:22:47;100082.84;;;16.00;66.47
15529;BME280;7866;52.280;9.500;2023-03-19T09:27:49;100091.13;;;16.19;66.69
15529;BME280;7866;52.280;9.500;2023-03-19T09:32:52;100095.09;;;16.03;66.57
15529;BME280;7866;52.280;9.500;2023-03-19T09:37:54;100102.81;;;15.53;67.01
15529;BME280;7866;52.280;9.500;2023-03-19T09:43:04;100114.41;;;15.34;67.83
15529;BME280;7866;52.280;9.500;2023-03-19T09:48:16;100117.97;;;15.61;67.29
15529;BME280;7866;52.280;9.500;2023-03-19T09:53:31;100121.91;;;15.91;67.18
15529;BME280;7866;52.280;9.500;2023-03-19T09:58:37;100123.16;;;16.09;65.68
15529;BME280;7866;52.280;9.500;2023-03-19T10:03:45;100133.28;;;16.40;65.15
15529;BME280;7866;52.280;9.500;2023-03-19T10:08:58;100125.78;;;16.42;64.87
15529;BME280;7866;52.280;9.500;2023-03-19T10:14:16;100123.47;;;16.39;65.49
15529;BME280;7866;52.280;9.500;2023-03-19T10:19:31;100126.81;;;16.34;65.44
15529;BME280;7866;52.280;9.500;2023-03-19T10:24:38;100135.34;;;16.44;64.78
15529;BME280;7866;52.280;9.500;2023-03-19T10:29:42;100133.16;;;16.66;64.62
15529;BME280;7866;52.280;9.500;2023-03-19T10:34:46;100129.81;;;16.71;63.81
15529;BME280;7866;52.280;9.500;2023-03-19T10:39:50;100135.47;;;16.63;64.37
15529;BME280;7866;52.280;9.500;2023-03-19T10:44:55;100134.00;;;16.73;63.38
15529;BME280;7866;52.280;9.500;2023-03-19T10:50:02;100133.88;;;16.42;63.36
15529;BME280;7866;52.280;9.500;2023-03-19T10:55:11;100135.34;;;16.38;63.77
15529;BME280;7866;52.280;9.500;2023-03-19T11:00:16;100145.16;;;16.32;63.11
15529;BME280;7866;52.280;9.500;2023-03-19T11:05:24;100145.38;;;16.11;63.11
15529;BME280;7866;52.280;9.500;2023-03-19T11:10:27;100141.25;;;16.08;63.82
15529;BME280;7866;52.280;9.500;2023-03-19T11:15:33;100151.81;;;16.03;64.57
15529;BME280;7866;52.280;9.500;2023-03-19T11:20:37;100142.66;;;16.24;64.03
15529;BME280;7866;52.280;9.500;2023-03-19T11:25:42;100151.97;;;16.35;63.19
15529;BME280;7866;52.280;9.500;2023-03-19T11:30:52;100151.97;;;16.41;62.77
15529;BME280;7866;52.280;9.500;2023-03-19T11:36:01;100154.63;;;16.55;63.58
15529;BME280;7866;52.280;9.500;2023-03-19T11:41:12;100151.09;;;16.47;63.32
15529;BME280;7866;52.280;9.500;2023-03-19T11:46:37;100153.16;;;16.65;62.70
15529;BME280;7866;52.280;9.500;2023-03-19T11:51:49;100154.81;;;17.18;61.02
15529;BME280;7866;52.280;9.500;2023-03-19T11:56:56;100148.13;;;16.82;61.52
15529;BME280;7866;52.280;9.500;2023-03-19T12:02:28;100139.81;;;17.15;58.26
15529;BME280;7866;52.280;9.500;2023-03-19T12:07:40;100148.16;;;17.20;60.19
15529;BME280;7866;52.280;9.500;2023-03-19T12:12:51;100151.22;;;16.92;60.88
15529;BME280;7866;52.280;9.500;2023-03-19T12:18:03;100145.94;;;17.04;61.43
15529;BME280;7866;52.280;9.500;2023-03-19T12:23:20;100159.19;;;16.74;61.75
15529;BME280;7866;52.280;9.500;2023-03-19T12:28:29;100150.63;;;16.77;62.01
15529;BME280;7866;52.280;9.500;2023-03-19T12:33:42;100146.34;;;16.43;61.82
15529;BME280;7866;52.280;9.500;2023-03-19T12:38:52;100144.91;;;16.34;63.58
15529;BME280;7866;52.280;9.500;2023-03-19T12:43:58;100149.31;;;16.15;62.92
15529;BME280;7866;52.280;9.500;2023-03-19T12:49:05;100147.69;;;15.87;63.35
15529;BME280;7866;52.280;9.500;2023-03-19T12:54:12;100153.72;;;15.83;63.02
15529;BME280;7866;52.280;9.500;2023-03-19T12:59:23;100151.44;;;15.73;63.60
15529;BME280;7866;52.280;9.500;2023-03-19T13:04:30;100155.59;;;15.82;63.63
15529;BME280;7866;52.280;9.500;2023-03-19T13:09:40;100153.47;;;16.11;63.16
15529;BME280;7866;52.280;9.500;2023-03-19T13:14:50;100147.81;;;16.39;62.88
15529;BME280;7866;52.280;9.500;2023-03-19T13:19:53;100148.44;;;16.34;62.77
15529;BME280;7866;52.280;9.500;2023-03-19T13:24:58;100156.81;;;16.13;64.27
15529;BME280;7866;52.280;9.500;2023-03-19T13:30:11;100141.69;;;15.92;64.50
15529;BME280;7866;52.280;9.500;2023-03-19T13:35:26;100151.38;;;16.19;64.53
15529;BME280;7866;52.280;9.500;2023-03-19T13:40:45;100147.50;;;16.67;64.05
15529;BME280;7866;52.280;9.500;2023-03-19T13:45:50;100145.53;;;16.42;64.48
15529;BME280;7866;52.280;9.500;2023-03-19T13:50:55;100150.03;;;16.62;64.61
15529;BME280;7866;52.280;9.500;2023-03-19T13:56:03;100136.63;;;16.22;64.43
15529;BME280;7866;52.280;9.500;2023-03-19T14:01:08;100135.97;;;16.40;64.24
15529;BME280;7866;52.280;9.500;2023-03-19T14:06:29;100127.22;;;16.44;64.64
15529;BME280;7866;52.280;9.500;2023-03-19T14:11:35;100136.13;;;16.51;64.77
15529;BME280;7866;52.280;9.500;2023-03-19T14:16:41;100124.94;;;16.48;64.43
15529;BME280;7866;52.280;9.500;2023-03-19T14:22:05;100138.66;;;16.46;64.51
15529;BME280;7866;52.280;9.500;2023-03-19T14:27:16;100137.22;;;16.44;63.35
15529;BME280;7866;52.280;9.500;2023-03-19T14:32:24;100140.28;;;16.47;64.35
15529;BME280;7866;52.280;9.500;2023-03-19T14:37:43;100139.47;;;16.47;63.59
15529;BME280;7866;52.280;9.500;2023-03-19T14:42:56;100135.75;;;16.41;63.78
15529;BME280;7866;52.280;9.500;2023-03-19T14:48:14;100131.00;;;16.30;63.25
15529;BME280;7866;52.280;9.500;2023-03-19T14:53:21;100130.56;;;16.40;63.57
15529;BME280;7866;52.280;9.500;2023-03-19T14:58:26;100130.94;;;16.50;62.91
15529;BME280;7866;52.280;9.500;2023-03-19T15:03:30;100129.34;;;16.29;62.87
15529;BME280;7866;52.280;9.500;2023-03-19T15:08:34;100132.06;;;16.29;62.88
15529;BME280;7866;52.280;9.500;2023-03-19T15:13:49;100129.56;;;16.14;63.46
15529;BME280;7866;52.280;9.500;2023-03-19T15:18:54;100146.84;;;16.13;62.96
15529;BME280;7866;52.280;9.500;2023-03-19T15:23:56;100135.16;;;16.26;62.92
15529;BME280;7866;52.280;9.500;2023-03-19T15:28:59;100127.00;;;16.46;61.70
15529;BME280;7866;52.280;9.500;2023-03-19T15:34:01;100132.41;;;16.39;62.70
15529;BME280;7866;52.280;9.500;2023-03-19T15:39:04;100136.81;;;16.34;62.46
15529;BME280;7866;52.280;9.500;2023-03-19T15:44:12;100136.03;;;16.20;62.62
15529;BME280;7866;52.280;9.500;2023-03-19T15:49:20;100146.41;;;16.16;62.84
15529;BME280;7866;52.280;9.500;2023-03-19T15:54:24;100144.34;;;15.98;63.17
15529;BME280;7866;52.280;9.500;2023-03-19T15:59:30;100155.59;;;15.89;62.95
15529;BME280;7866;52.280;9.500;2023-03-19T16:04:32;100160.16;;;15.75;63.19
15529;BME280;7866;52.280;9.500;2023-03-19T16:09:34;100164.50;;;15.69;63.85
15529;BME280;7866;52.280;9.500;2023-03-19T16:14:40;100160.56;;;15.65;64.37
15529;BME280;7866;52.280;9.500;2023-03-19T16:19:50;100175.06;;;15.58;65.09
15529;BME280;7866;52.280;9.500;2023-03-19T16:24:52;100185.63;;;15.46;65.04
15529;BME280;7866;52.280;9.500;2023-03-19T16:29:58;100185.41;;;15.34;66.04
15529;BME280;7866;52.280;9.500;2023-03-19T16:35:03;100176.25;;;15.28;66.61
15529;BME280;7866;52.280;9.500;2023-03-19T16:40:40;100178.72;;;15.17;66.94
15529;BME280;7866;52.280;9.500;2023-03-19T16:45:44;100184.09;;;15.10;67.62
15529;BME280;7866;52.280;9.500;2023-03-19T16:50:49;100190.06;;;14.99;67.75
15529;BME280;7866;52.280;9.500;2023-03-19T16:55:51;100192.31;;;14.89;68.05
15529;BME280;7866;52.280;9.500;2023-03-19T17:00:55;100208.41;;;14.75;68.85
15529;BME280;7866;52.280;9.500;2023-03-19T17:05:57;100205.81;;;14.54;69.64
15529;BME280;7866;52.280;9.500;2023-03-19T17:10:59;100211.47;;;14.38;70.44
15529;BME280;7866;52.280;9.500;2023-03-19T17:16:03;100215.84;;;14.11;71.72
15529;BME280;7866;52.280;9.500;2023-03-19T17:21:08;100222.63;;;14.07;72.19
15529;BME280;7866;52.280;9.500;2023-03-19T17:26:14;100225.25;;;14.00;72.38
15529;BME280;7866;52.280;9.500;2023-03-19T17:31:22;100227.72;;;13.95;72.47
15529;BME280;7866;52.280;9.500;2023-03-19T17:36:25;100240.03;;;13.83;72.88
15529;BME280;7866;52.280;9.500;2023-03-19T17:41:27;100248.44;;;13.73;73.37
15529;BME280;7866;52.280;9.500;2023-03-19T17:46:34;100250.22;;;13.66;73.75
15529;BME280;7866;52.280;9.500;2023-03-19T17:51:37;100251.09;;;13.51;74.45
15529;BME280;7866;52.280;9.500;2023-03-19T17:56:39;100261.84;;;13.30;76.18
15529;BME280;7866;52.280;9.500;2023-03-19T18:01:44;100263.59;;;13.08;77.89
15529;BME280;7866;52.280;9.500;2023-03-19T18:06:49;100270.09;;;13.14;78.46
15529;BME280;7866;52.280;9.500;2023-03-19T18:11:51;100263.41;;;12.95;80.26
15529;BME280;7866;52.280;9.500;2023-03-19T18:16:54;100272.59;;;12.86;80.10
15529;BME280;7866;52.280;9.500;2023-03-19T18:21:56;100278.97;;;12.85;80.45
15529;BME280;7866;52.280;9.500;2023-03-19T18:26:57;100286.03;;;12.71;80.52
15529;BME280;7866;52.280;9.500;2023-03-19T18:32:02;100287.41;;;12.67;81.33
15529;BME280;7866;52.280;9.500;2023-03-19T18:37:05;100295.69;;;12.65;81.76
15529;BME280;7866;52.280;9.500;2023-03-19T18:42:08;100292.41;;;12.85;81.79
15529;BME280;7866;52.280;9.500;2023-03-19T18:47:13;100302.16;;;13.00;80.41
15529;BME280;7866;52.280;9.500;2023-03-19T18:52:15;100300.41;;;13.07;80.42
15529;BME280;7866;52.280;9.500;2023-03-19T18:57:17;100312.00;;;12.93;80.44
15529;BME280;7866;52.280;9.500;2023-03-19T19:02:29;100312.34;;;12.75;81.87
15529;BME280;7866;52.280;9.500;2023-03-19T19:07:31;100314.19;;;12.60;82.53
15529;BME280;7866;52.280;9.500;2023-03-19T19:12:33;100315.84;;;12.46;84.58
15529;BME280;7866;52.280;9.500;2023-03-19T19:17:36;100318.72;;;12.45;84.92
15529;BME280;7866;52.280;9.500;2023-03-19T19:22:38;100324.31;;;12.35;84.73
15529;BME280;7866;52.280;9.500;2023-03-19T19:27:40;100335.59;;;12.30;85.53
15529;BME280;7866;52.280;9.500;2023-03-19T19:32:44;100346.59;;;12.21;85.75
15529;BME280;7866;52.280;9.500;2023-03-19T19:37:46;100342.28;;;12.12;86.83
15529;BME280;7866;52.280;9.500;2023-03-19T19:42:49;100340.00;;;12.00;87.80
15529;BME280;7866;52.280;9.500;2023-03-19T19:47:53;100354.09;;;12.02;87.61
15529;BME280;7866;52.280;9.500;2023-03-19T19:52:56;100352.78;;;11.98;87.98
15529;BME280;7866;52.280;9.500;2023-03-19T19:57:58;100358.03;;;11.92;88.38
15529;BME280;7866;52.280;9.500;2023-03-19T20:03:01;100365.25;;;11.91;88.04
15529;BME280;7866;52.280;9.500;2023-03-19T20:08:03;100368.28;;;11.88;87.16
15529;BME280;7866;52.280;9.500;2023-03-19T20:13:04;100368.28;;;11.88;87.12
15529;BME280;7866;52.280;9.500;2023-03-19T20:18:13;100375.16;;;11.82;85.69
15529;BME280;7866;52.280;9.500;2023-03-19T20:23:16;100369.28;;;11.87;86.64
15529;BME280;7866;52.280;9.500;2023-03-19T20:28:21;100371.81;;;11.80;86.54
15529;BME280;7866;52.280;9.500;2023-03-19T20:33:26;100368.81;;;11.75;87.25
15529;BME280;7866;52.280;9.500;2023-03-19T20:38:28;100379.75;;;11.74;88.40
15529;BME280;7866;52.280;9.500;2023-03-19T20:43:32;100380.72;;;11.73;87.79
15529;BME280;7866;52.280;9.500;2023-03-19T20:48:35;100382.78;;;11.71;87.14
15529;BME280;7866;52.280;9.500;2023-03-19T20:53:37;100379.13;;;11.64;88.03
15529;BME280;7866;52.280;9.500;2023-03-19T20:58:39;100384.44;;;11.72;87.88
15529;BME280;7866;52.280;9.500;2023-03-19T21:03:42;100389.47;;;11.75;87.02
15529;BME280;7866;52.280;9.500;2023-03-19T21:08:45;100390.75;;;11.87;85.83
15529;BME280;7866;52.280;9.500;2023-03-19T21:13:48;100397.44;;;11.91;85.85
15529;BME280;7866;52.280;9.500;2023-03-19T21:18:52;100395.94;;;11.89;85.54
15529;BME280;7866;52.280;9.500;2023-03-19T21:23:55;100393.59;;;11.94;85.74
15529;BME280;7866;52.280;9.500;2023-03-19T21:29:02;100400.03;;;12.07;84.65
15529;BME280;7866;52.280;9.500;2023-03-19T21:34:08;100401.25;;;11.97;84.88
15529;BME280;7866;52.280;9.500;2023-03-19T21:39:12;100386.84;;;11.98;84.85
15529;BME280;7866;52.280;9.500;2023-03-19T21:44:17;100392.75;;;11.93;83.74
15529;BME280;7866;52.280;9.500;2023-03-19T21:49:22;100398.47;;;11.90;84.82
15529;BME280;7866;52.280;9.500;2023-03-19T21:54:23;100404.19;;;12.18;84.21
15529;BME280;7866;52.280;9.500;2023-03-19T21:59:27;100401.13;;;12.21;83.01
15529;BME280;7866;52.280;9.500;2023-03-19T22:04:32;100401.84;;;12.15;83.42
15529;BME280;7866;52.280;9.500;2023-03-19T22:09:34;100400.38;;;12.04;83.85
15529;BME280;7866;52.280;9.500;2023-03-19T22:14:36;100396.72;;;12.05;84.40
15529;BME280;7866;52.280;9.500;2023-03-19T22:19:40;100400.31;;;12.21;83.25
15529;BME280;7866;52.280;9.500;2023-03-19T22:24:42;100399.63;;;12.19;82.75
15529;BME280;7866;52.280;9.500;2023-03-19T22:29:44;100400.66;;;12.18;82.95
15529;BME280;7866;52.280;9.500;2023-03-19T22:34:48;100399.16;;;12.15;82.78
15529;BME280;7866;52.280;9.500;2023-03-19T22:39:49;100409.69;;;12.25;83.28
15529;BME280;7866;52.280;9.500;2023-03-19T22:44:51;100405.69;;;12.21;83.75
15529;BME280;7866;52.280;9.500;2023-03-19T22:49:55;100404.66;;;12.22;84.85
15529;BME280;7866;52.280;9.500;2023-03-19T22:54:56;100409.84;;;12.23;83.93
15529;BME280;7866;52.280;9.500;2023-03-19T22:59:58;100409.25;;;12.13;84.83
15529;BME280;7866;52.280;9.500;2023-03-19T23:05:18;100417.69;;;12.02;86.38
15529;BME280;7866;52.280;9.500;2023-03-19T23:10:23;100414.56;;;11.90;86.55
15529;BME280;7866;52.280;9.500;2023-03-19T23:15:27;100417.66;;;11.71;86.79
15529;BME280;7866;52.280;9.500;2023-03-19T23:20:31;100427.81;;;11.44;85.64
15529;BME280;7866;52.280;9.500;2023-03-19T23:25:33;100431.88;;;11.32;87.72
15529;BME280;7866;52.280;9.500;2023-03-19T23:30:35;100446.63;;;11.20;88.62
15529;BME280;7866;52.280;9.500;2023-03-19T23:35:42;100452.69;;;11.22;88.20
15529;BME280;7866;52.280;9.500;2023-03-19T23:40:44;100459.41;;;11.09;89.19
15529;BME280;7866;52.280;9.500;2023-03-19T23:45:47;100469.97;;;10.95;90.24
15529;BME280;7866;52.280;9.500;2023-03-19T23:50:50;100482.03;;;10.91;90.60
15529;BME280;7866;52.280;9.500;2023-03-19T23:55:57;100488.03;;;10.84;90.99
